createdAt,value
2019-04-21T00:01:00.386Z,15.16
2019-04-21T00:01:57.719Z,15.18
2019-04-21T00:03:00.679Z,15.42
2019-04-21T00:04:07.402Z,15.30
2019-04-21T00:05:17.270Z,15.61
2019-04-21T00:06:15.600Z,15.66
2019-04-21T00:07:15.997Z,15.59
2019-04-21T00:08:24.665Z,15.48
2019-04-21T00:09:19.148Z,15.34
2019-04-21T00:10:23.029Z,15.28
2019-04-21T00:11:16.063Z,15.49
2019-04-21T00:12:15.272Z,15.38
2019-04-21T00:13:12.319Z,15.39
2019-04-21T00:14:07.506Z,15.23
2019-04-21T00:15:07.391Z,15.16
2019-04-21T00:16:02.389Z,15.18
2019-04-21T00:17:02.841Z,15.06
2019-04-21T00:18:00.455Z,14.95
2019-04-21T00:19:01.129Z,14.91
2019-04-21T00:20:05.542Z,14.78
2019-04-21T00:20:58.004Z,14.78
2019-04-21T00:22:07.632Z,14.71
2019-04-21T00:23:13.088Z,14.65
2019-04-21T00:24:08.619Z,14.60
2019-04-21T00:25:09.423Z,14.50
2019-04-21T00:26:07.095Z,14.50
2019-04-21T00:27:10.947Z,14.36
2019-04-21T00:28:21.948Z,14.34
2019-04-21T00:29:21.055Z,14.34
2019-04-21T00:30:15.841Z,14.35
2019-04-21T00:31:09.862Z,14.39
2019-04-21T00:32:11.463Z,14.35
2019-04-21T00:33:04.570Z,14.21
2019-04-21T00:33:55.002Z,14.21
2019-04-21T00:35:02.548Z,14.27
2019-04-21T00:36:02.084Z,14.16
2019-04-21T00:37:03.155Z,14.03
2019-04-21T00:38:15.379Z,13.96
2019-04-21T00:39:20.950Z,13.92
2019-04-21T00:40:16.612Z,13.95
2019-04-21T00:41:13.455Z,13.89
2019-04-21T00:42:09.799Z,13.89
2019-04-21T00:43:13.319Z,13.83
2019-04-21T00:44:04.525Z,13.92
2019-04-21T00:45:10.775Z,13.87
2019-04-21T00:46:03.451Z,13.94
2019-04-21T00:47:08.452Z,14.03
2019-04-21T00:48:16.930Z,14.01
2019-04-21T00:49:05.908Z,14.16
2019-04-21T00:50:12.787Z,14.14
2019-04-21T00:51:31.503Z,14.16
2019-04-21T00:52:24.656Z,14.09
2019-04-21T00:53:19.614Z,13.98
2019-04-21T00:54:19.684Z,14.13
2019-04-21T00:56:18.225Z,14.27
2019-04-21T00:57:22.227Z,14.39
2019-04-21T00:58:18.404Z,14.36
2019-04-21T00:59:13.846Z,14.39
2019-04-21T01:00:11.839Z,14.35
2019-04-21T01:01:16.227Z,14.27
2019-04-21T01:02:12.727Z,14.35
2019-04-21T01:03:14.470Z,14.32
2019-04-21T01:04:12.234Z,14.54
2019-04-21T01:05:16.645Z,14.46
2019-04-21T01:06:19.114Z,14.52
2019-04-21T01:07:12.458Z,14.60
2019-04-21T01:08:13.157Z,14.59
2019-04-21T01:09:09.500Z,14.54
2019-04-21T01:10:06.332Z,14.61
2019-04-21T01:11:15.319Z,14.59
2019-04-21T01:12:15.541Z,14.61
2019-04-21T01:13:17.953Z,14.60
2019-04-21T01:14:12.013Z,14.59
2019-04-21T01:15:22.688Z,14.35
2019-04-21T01:16:14.126Z,14.29
2019-04-21T01:17:12.991Z,14.13
2019-04-21T01:18:12.938Z,13.96
2019-04-21T01:19:14.431Z,13.96
2019-04-21T01:20:01.191Z,13.76
2019-04-21T01:20:50.060Z,13.70
2019-04-21T01:21:49.986Z,13.55
2019-04-21T01:22:49.911Z,13.43
2019-04-21T01:23:50.744Z,13.21
2019-04-21T01:25:00.044Z,13.07
2019-04-21T01:26:00.567Z,13.07
2019-04-21T01:27:02.361Z,13.00
2019-04-21T01:28:03.922Z,13.02
2019-04-21T01:29:10.429Z,12.97
2019-04-21T01:30:14.712Z,12.78
2019-04-21T01:31:12.422Z,12.70
2019-04-21T01:32:14.583Z,12.77
2019-04-21T01:33:17.389Z,12.82
2019-04-21T01:34:12.945Z,12.92
2019-04-21T01:35:10.102Z,12.88
2019-04-21T01:36:08.421Z,12.82
2019-04-21T01:37:08.782Z,12.85
2019-04-21T01:38:15.076Z,12.70
2019-04-21T01:39:18.104Z,12.74
2019-04-21T01:40:16.880Z,12.82
2019-04-21T01:41:13.206Z,12.71
2019-04-21T01:42:11.352Z,12.63
2019-04-21T01:43:10.181Z,12.51
2019-04-21T01:44:09.456Z,12.41
2019-04-21T01:45:04.386Z,12.27
2019-04-21T01:46:05.540Z,12.16
2019-04-21T01:47:03.082Z,12.21
2019-04-21T01:48:06.504Z,12.12
2019-04-21T01:49:01.887Z,12.08
2019-04-21T01:49:59.055Z,12.09
2019-04-21T01:51:07.570Z,11.95
2019-04-21T01:52:17.825Z,11.98
2019-04-21T01:53:11.515Z,11.81
2019-04-21T01:54:11.190Z,11.79
2019-04-21T01:55:08.299Z,11.72
2019-04-21T01:56:09.295Z,11.78
2019-04-21T01:57:11.374Z,11.76
2019-04-21T01:58:02.265Z,11.81
2019-04-21T01:58:57.622Z,11.87
2019-04-21T01:59:58.859Z,11.81
2019-04-21T02:01:00.846Z,11.79
2019-04-21T02:02:06.677Z,11.72
2019-04-21T02:03:31.470Z,11.67
2019-04-21T02:04:11.733Z,11.57
2019-04-21T02:05:12.410Z,11.39
2019-04-21T02:06:14.940Z,11.46
2019-04-21T02:07:11.542Z,11.31
2019-04-21T02:08:05.419Z,11.29
2019-04-21T02:09:04.886Z,11.42
2019-04-21T02:10:11.693Z,11.35
2019-04-21T02:11:15.657Z,11.46
2019-04-21T02:12:10.565Z,11.57
2019-04-21T02:13:05.454Z,11.60
2019-04-21T02:14:12.963Z,11.54
2019-04-21T02:15:11.528Z,11.57
2019-04-21T02:16:07.937Z,11.50
2019-04-21T02:17:07.658Z,11.34
2019-04-21T02:18:07.565Z,11.35
2019-04-21T02:19:04.430Z,11.28
2019-04-21T02:20:00.003Z,11.23
2019-04-21T02:20:55.322Z,11.23
2019-04-21T02:22:00.870Z,11.08
2019-04-21T02:24:17.130Z,11.03
2019-04-21T02:25:11.293Z,10.95
2019-04-21T02:26:09.715Z,10.88
2019-04-21T02:27:07.629Z,10.87
2019-04-21T02:28:13.500Z,10.74
2019-04-21T02:29:12.781Z,10.73
2019-04-21T02:30:14.575Z,10.75
2019-04-21T02:32:18.364Z,10.75
2019-04-21T02:33:18.546Z,10.74
2019-04-21T02:35:25.496Z,10.80
2019-04-21T02:38:27.629Z,10.73
2019-04-21T02:39:23.077Z,10.67
2019-04-21T02:40:11.325Z,10.66
2019-04-21T02:41:15.746Z,10.60
2019-04-21T02:42:08.154Z,10.56
2019-04-21T02:43:22.917Z,10.58
2019-04-21T02:44:16.680Z,10.46
2019-04-21T02:45:17.709Z,10.47
2019-04-21T02:46:27.129Z,10.46
2019-04-21T02:47:24.207Z,10.33
2019-04-21T02:48:34.929Z,10.23
2019-04-21T02:49:22.056Z,10.21
2019-04-21T02:50:22.411Z,10.13
2019-04-21T02:52:27.428Z,10.13
2019-04-21T02:53:20.337Z,10.01
2019-04-21T02:55:06.451Z,9.88
2019-04-21T02:56:20.545Z,9.86
2019-04-21T02:57:15.643Z,9.92
2019-04-21T02:58:18.729Z,9.93
2019-04-21T03:00:20.461Z,9.90
2019-04-21T03:01:25.355Z,9.89
2019-04-21T03:02:35.024Z,9.96
2019-04-21T03:03:17.206Z,9.82
2019-04-21T03:04:26.290Z,9.79
2019-04-21T03:06:12.868Z,9.58
2019-04-21T03:07:13.322Z,9.60
2019-04-21T03:08:14.344Z,9.50
2019-04-21T03:09:18.280Z,9.47
2019-04-21T03:10:12.541Z,9.42
2019-04-21T03:11:14.096Z,9.40
2019-04-21T03:12:22.689Z,9.46
2019-04-21T03:13:13.834Z,9.42
2019-04-21T03:14:16.789Z,9.42
2019-04-21T03:15:15.630Z,9.35
2019-04-21T03:17:14.282Z,9.19
2019-04-21T03:18:18.626Z,9.12
2019-04-21T03:19:16.002Z,9.03
2019-04-21T03:22:14.253Z,9.14
2019-04-21T03:24:29.449Z,9.22
2019-04-21T03:26:19.817Z,9.20
2019-04-21T03:27:25.832Z,9.24
2019-04-21T03:28:13.915Z,9.25
2019-04-21T03:29:11.945Z,9.16
2019-04-21T03:30:52.834Z,9.06
2019-04-21T03:33:59.489Z,9.09
2019-04-21T03:37:16.816Z,9.00
2019-04-21T03:38:16.747Z,9.02
2019-04-21T03:39:04.618Z,9.05
2019-04-21T03:40:22.155Z,8.93
2019-04-21T03:41:12.753Z,8.87
2019-04-21T03:42:18.858Z,8.90
2019-04-21T03:44:14.434Z,8.82
2019-04-21T03:45:12.637Z,8.69
2019-04-21T03:46:08.193Z,8.66
2019-04-21T03:48:09.279Z,8.70
2019-04-21T03:49:19.333Z,8.60
2019-04-21T03:51:15.999Z,8.66
2019-04-21T03:52:11.399Z,8.66
2019-04-21T03:53:11.495Z,8.77
2019-04-21T03:54:13.736Z,8.80
2019-04-21T03:55:33.994Z,8.82
2019-04-21T03:56:46.957Z,8.79
2019-04-21T03:58:47.054Z,8.84
2019-04-21T03:59:16.538Z,8.93
2019-04-21T04:00:36.489Z,8.82
2019-04-21T04:01:32.882Z,8.69
2019-04-21T04:02:23.007Z,8.79
2019-04-21T04:05:19.998Z,8.93
2019-04-21T04:06:20.568Z,8.88
2019-04-21T04:07:39.716Z,8.88
2019-04-21T04:08:33.401Z,8.82
2019-04-21T04:09:25.748Z,8.76
2019-04-21T04:10:34.809Z,8.66
2019-04-21T04:11:33.670Z,8.62
2019-04-21T04:13:37.629Z,8.62
2019-04-21T04:14:29.248Z,8.57
2019-04-21T04:15:31.473Z,8.52
2019-04-21T04:16:20.226Z,8.37
2019-04-21T04:17:23.449Z,8.37
2019-04-21T04:18:31.948Z,8.42
2019-04-21T04:19:18.801Z,8.42
2019-04-21T04:22:23.381Z,8.62
2019-04-21T04:23:42.154Z,8.66
2019-04-21T04:24:24.083Z,8.68
2019-04-21T04:25:19.193Z,8.66
2019-04-21T04:27:33.695Z,8.68
2019-04-21T04:28:25.731Z,8.58
2019-04-21T04:29:20.354Z,8.55
2019-04-21T04:31:31.303Z,8.66
2019-04-21T04:33:30.725Z,8.68
2019-04-21T04:35:21.499Z,8.76
2019-04-21T04:37:30.714Z,8.88
2019-04-21T04:39:36.525Z,8.90
2019-04-21T04:40:10.874Z,8.70
2019-04-21T04:41:22.283Z,8.77
2019-04-21T04:44:11.098Z,8.68
2019-04-21T04:45:17.605Z,8.69
2019-04-21T04:47:10.302Z,8.68
2019-04-21T04:48:09.218Z,8.77
2019-04-21T04:49:10.970Z,8.84
2019-04-21T04:50:17.826Z,8.73
2019-04-21T04:51:01.909Z,8.65
2019-04-21T04:52:19.195Z,8.69
2019-04-21T04:53:14.104Z,8.70
2019-04-21T04:54:05.173Z,8.75
2019-04-21T04:56:16.356Z,8.55
2019-04-21T04:59:29.984Z,8.69
2019-04-21T05:00:25.775Z,8.73
2019-04-21T05:01:14.153Z,8.79
2019-04-21T05:02:15.134Z,8.68
2019-04-21T05:03:00.979Z,8.66
2019-04-21T05:04:10.141Z,8.73
2019-04-21T05:06:10.322Z,8.66
2019-04-21T05:07:07.100Z,8.65
2019-04-21T05:08:07.537Z,8.68
2019-04-21T05:09:07.837Z,8.70
2019-04-21T05:10:07.932Z,8.72
2019-04-21T05:11:20.721Z,8.68
2019-04-21T05:13:14.284Z,8.57
2019-04-21T05:14:11.718Z,8.57
2019-04-21T05:16:09.915Z,8.68
2019-04-21T05:17:02.225Z,8.54
2019-04-21T05:18:30.740Z,8.51
2019-04-21T05:19:10.239Z,8.58
2019-04-21T05:20:08.572Z,8.70
2019-04-21T05:21:16.059Z,8.69
2019-04-21T05:22:05.258Z,8.73
2019-04-21T05:22:59.786Z,8.72
2019-04-21T05:23:51.229Z,8.76
2019-04-21T05:24:53.749Z,8.85
2019-04-21T05:25:48.473Z,8.93
2019-04-21T05:26:47.912Z,8.91
2019-04-21T05:27:47.268Z,8.95
2019-04-21T05:28:47.551Z,9.06
2019-04-21T05:29:59.918Z,9.05
2019-04-21T05:30:57.764Z,9.02
2019-04-21T05:32:00.451Z,9.06
2019-04-21T05:33:10.759Z,9.16
2019-04-21T05:33:57.729Z,9.17
2019-04-21T05:34:57.052Z,9.28
2019-04-21T05:35:55.210Z,9.24
2019-04-21T05:36:52.039Z,9.17
2019-04-21T05:37:53.813Z,9.25
2019-04-21T05:38:50.248Z,9.34
2019-04-21T05:39:49.257Z,9.16
2019-04-21T05:40:47.262Z,9.32
2019-04-21T05:41:45.544Z,9.24
2019-04-21T05:42:52.939Z,9.17
2019-04-21T05:43:54.533Z,9.16
2019-04-21T05:44:59.924Z,9.17
2019-04-21T05:46:02.600Z,9.27
2019-04-21T05:48:52.165Z,9.56
2019-04-21T05:49:49.879Z,9.63
2019-04-21T05:50:49.539Z,9.74
2019-04-21T05:51:44.350Z,9.85
2019-04-21T05:52:46.197Z,9.89
2019-04-21T05:53:55.652Z,9.92
2019-04-21T05:54:57.307Z,9.90
2019-04-21T05:55:56.990Z,10.00
2019-04-21T05:56:48.839Z,10.11
2019-04-21T05:57:54.618Z,10.16
2019-04-21T05:58:48.443Z,10.19
2019-04-21T05:59:53.698Z,10.15
2019-04-21T06:01:06.115Z,10.29
2019-04-21T06:02:02.556Z,10.36
2019-04-21T06:02:57.683Z,10.37
2019-04-21T06:03:57.599Z,10.40
2019-04-21T06:06:14.058Z,10.49
2019-04-21T06:06:59.876Z,10.58
2019-04-21T06:07:53.985Z,10.74
2019-04-21T06:08:52.509Z,10.75
2019-04-21T06:09:57.128Z,10.88
2019-04-21T06:10:54.223Z,10.85
2019-04-21T06:11:51.210Z,10.91
2019-04-21T06:13:02.387Z,10.96
2019-04-21T06:13:55.451Z,11.03
2019-04-21T06:14:54.788Z,11.08
2019-04-21T06:15:56.202Z,11.23
2019-04-21T06:19:22.515Z,11.41
2019-04-21T06:20:20.967Z,11.56
2019-04-21T06:25:16.266Z,11.76
2019-04-21T06:26:17.926Z,11.81
2019-04-21T06:27:04.306Z,11.84
2019-04-21T06:27:55.080Z,11.93
2019-04-21T06:28:50.375Z,12.06
2019-04-21T06:30:57.898Z,12.23
2019-04-21T06:32:16.311Z,12.39
2019-04-21T06:32:49.222Z,12.49
2019-04-21T06:39:44.808Z,12.69
2019-04-21T06:40:37.357Z,12.70
2019-04-21T06:41:58.410Z,12.82
2019-04-21T06:42:35.479Z,12.79
2019-04-21T06:43:40.451Z,12.91
2019-04-21T06:44:33.208Z,12.97
2019-04-21T06:45:39.955Z,13.04
2019-04-21T06:46:35.550Z,13.04
2019-04-21T06:47:42.174Z,13.02
2019-04-21T06:48:37.511Z,13.10
2019-04-21T06:49:25.141Z,13.21
2019-04-21T06:53:46.971Z,13.44
2019-04-21T06:54:34.200Z,13.66
2019-04-21T06:55:34.121Z,13.68
2019-04-21T06:56:39.691Z,13.66
2019-04-21T06:57:34.757Z,13.78
2019-04-21T06:58:32.932Z,13.81
2019-04-21T06:59:37.212Z,13.86
2019-04-21T07:00:31.604Z,13.89
2019-04-21T07:01:37.811Z,13.94
2019-04-21T07:02:50.688Z,14.01
2019-04-21T07:03:34.651Z,14.09
2019-04-21T07:04:36.794Z,14.13
2019-04-21T07:05:38.867Z,14.10
2019-04-21T07:06:40.395Z,14.20
2019-04-21T07:07:27.933Z,14.29
2019-04-21T07:08:37.044Z,14.24
2019-04-21T07:09:31.180Z,14.39
2019-04-21T07:10:35.096Z,14.50
2019-04-21T07:11:30.566Z,14.47
2019-04-21T07:12:27.521Z,14.46
2019-04-21T07:13:27.534Z,14.50
2019-04-21T07:15:30.470Z,14.59
2019-04-21T07:16:31.743Z,14.69
2019-04-21T07:17:46.993Z,14.78
2019-04-21T07:18:37.043Z,14.87
2019-04-21T07:19:35.177Z,15.03
2019-04-21T07:20:29.761Z,14.94
2019-04-21T07:21:34.261Z,15.12
2019-04-21T07:22:30.233Z,15.08
2019-04-21T07:23:32.207Z,15.13
2019-04-21T07:24:35.440Z,15.38
2019-04-21T07:25:35.745Z,15.42
2019-04-21T07:26:29.611Z,15.52
2019-04-21T07:27:35.324Z,15.53
2019-04-21T07:28:31.555Z,15.71
2019-04-21T07:29:34.486Z,15.79
2019-04-21T07:30:38.003Z,16.03
2019-04-21T07:31:34.749Z,16.23
2019-04-21T07:32:49.687Z,16.55
2019-04-21T07:33:52.377Z,16.92
2019-04-21T07:34:33.500Z,17.13
2019-04-21T07:35:31.820Z,17.32
2019-04-21T07:36:38.313Z,17.43
2019-04-21T07:37:33.213Z,17.39
2019-04-21T07:38:27.630Z,17.54
2019-04-21T07:39:27.750Z,17.57
2019-04-21T07:40:23.181Z,17.77
2019-04-21T07:41:18.505Z,17.95
2019-04-21T07:42:24.393Z,17.94
2019-04-21T07:43:28.508Z,17.96
2019-04-21T07:44:24.009Z,18.07
2019-04-21T07:45:23.023Z,18.19
2019-04-21T07:46:22.368Z,18.46
2019-04-21T07:47:31.410Z,18.40
2019-04-21T07:48:27.473Z,18.29
2019-04-21T07:49:25.187Z,18.21
2019-04-21T07:50:28.647Z,18.34
2019-04-21T07:51:33.946Z,18.25
2019-04-21T07:52:28.358Z,18.42
2019-04-21T07:53:38.646Z,18.47
2019-04-21T07:54:37.344Z,18.57
2019-04-21T07:56:11.956Z,18.59
2019-04-21T07:57:23.766Z,18.73
2019-04-21T07:58:26.664Z,18.74
2019-04-21T07:59:40.872Z,18.67
2019-04-21T08:00:35.870Z,18.64
2019-04-21T08:02:28.317Z,18.90
2019-04-21T08:03:26.577Z,18.90
2019-04-21T08:04:49.558Z,18.97
2019-04-21T08:05:27.937Z,18.95
2019-04-21T08:06:28.322Z,19.11
2019-04-21T08:07:30.743Z,19.11
2019-04-21T08:08:21.104Z,19.14
2019-04-21T08:09:29.434Z,19.11
2019-04-21T08:10:24.248Z,19.27
2019-04-21T08:11:19.684Z,19.33
2019-04-21T08:12:20.267Z,19.25
2019-04-21T08:13:34.498Z,19.42
2019-04-21T08:14:28.625Z,19.38
2019-04-21T08:15:30.959Z,19.45
2019-04-21T08:16:28.459Z,19.48
2019-04-21T08:17:23.946Z,19.43
2019-04-21T08:18:28.812Z,19.40
2019-04-21T08:19:26.289Z,19.46
2019-04-21T08:20:24.170Z,19.46
2019-04-21T08:21:27.955Z,19.54
2019-04-21T08:22:27.196Z,19.54
2019-04-21T08:23:29.414Z,19.57
2019-04-21T08:24:19.721Z,19.54
2019-04-21T08:25:27.341Z,19.35
2019-04-21T08:26:24.734Z,19.45
2019-04-21T08:27:32.164Z,19.45
2019-04-21T08:28:28.978Z,19.43
2019-04-21T08:29:33.089Z,19.63
2019-04-21T08:30:26.253Z,19.61
2019-04-21T08:31:32.253Z,19.64
2019-04-21T08:32:31.688Z,19.72
2019-04-21T08:33:33.717Z,19.79
2019-04-21T08:34:29.951Z,19.83
2019-04-21T08:35:40.881Z,19.78
2019-04-21T08:36:27.178Z,19.90
2019-04-21T08:37:26.020Z,19.94
2019-04-21T08:38:20.373Z,19.93
2019-04-21T08:39:20.020Z,20.01
2019-04-21T08:40:42.409Z,20.09
2019-04-21T08:41:23.084Z,20.20
2019-04-21T08:42:25.678Z,20.35
2019-04-21T08:43:30.695Z,20.27
2019-04-21T08:44:25.809Z,20.40
2019-04-21T08:46:24.951Z,20.40
2019-04-21T08:47:28.465Z,20.46
2019-04-21T08:48:25.383Z,20.43
2019-04-21T08:49:22.259Z,20.46
2019-04-21T08:50:21.119Z,20.50
2019-04-21T08:51:27.945Z,20.54
2019-04-21T08:52:37.699Z,20.59
2019-04-21T08:53:26.039Z,20.59
2019-04-21T08:54:28.049Z,20.65
2019-04-21T08:55:25.329Z,20.69
2019-04-21T08:56:25.040Z,20.65
2019-04-21T08:57:21.539Z,20.66
2019-04-21T08:59:27.815Z,20.65
2019-04-21T09:00:26.391Z,20.76
2019-04-21T09:01:25.833Z,20.79
2019-04-21T09:02:23.127Z,20.91
2019-04-21T09:03:25.499Z,20.91
2019-04-21T09:04:26.156Z,20.99
2019-04-21T09:05:19.174Z,21.08
2019-04-21T09:06:22.215Z,21.17
2019-04-21T09:07:29.085Z,21.26
2019-04-21T09:08:21.665Z,21.20
2019-04-21T09:09:27.866Z,21.19
2019-04-21T09:10:16.927Z,21.16
2019-04-21T09:11:18.831Z,21.12
2019-04-21T09:13:17.537Z,21.24
2019-04-21T09:14:20.653Z,21.31
2019-04-21T09:16:49.132Z,21.35
2019-04-21T09:17:44.985Z,21.51
2019-04-21T09:18:45.625Z,21.60
2019-04-21T09:20:13.868Z,21.64
2019-04-21T09:20:52.217Z,21.60
2019-04-21T09:21:55.196Z,21.69
2019-04-21T09:22:55.675Z,21.66
2019-04-21T09:23:50.957Z,21.60
2019-04-21T09:24:53.590Z,21.60
2019-04-21T09:25:55.450Z,21.66
2019-04-21T09:26:52.292Z,21.67
2019-04-21T09:27:53.705Z,21.61
2019-04-21T09:28:46.611Z,21.78
2019-04-21T09:29:39.380Z,21.86
2019-04-21T09:30:39.609Z,21.91
2019-04-21T09:31:38.001Z,21.89
2019-04-21T09:32:34.876Z,21.94
2019-04-21T09:33:37.724Z,22.00
2019-04-21T09:34:36.927Z,21.98
2019-04-21T09:35:33.466Z,22.10
2019-04-21T09:36:40.280Z,22.13
2019-04-21T09:37:40.937Z,22.10
2019-04-21T09:38:38.255Z,22.20
2019-04-21T09:41:06.700Z,22.26
2019-04-21T09:42:05.069Z,22.24
2019-04-21T09:43:09.409Z,22.22
2019-04-21T09:44:08.354Z,22.19
2019-04-21T09:45:06.277Z,22.22
2019-04-21T09:46:04.027Z,22.31
2019-04-21T09:47:06.772Z,22.31
2019-04-21T09:48:10.160Z,22.39
2019-04-21T09:49:07.399Z,22.50
2019-04-21T09:50:05.199Z,22.56
2019-04-21T09:51:03.986Z,22.44
2019-04-21T09:52:08.888Z,22.35
2019-04-21T09:53:16.873Z,22.34
2019-04-21T09:54:08.756Z,22.35
2019-04-21T10:02:09.659Z,22.44
2019-04-21T10:03:08.196Z,22.53
2019-04-21T10:05:38.423Z,22.68
2019-04-21T10:06:37.663Z,22.72
2019-04-21T10:07:41.956Z,22.68
2019-04-21T10:08:38.619Z,22.62
2019-04-21T10:09:37.723Z,22.77
2019-04-21T10:10:38.404Z,22.79
2019-04-21T10:11:37.634Z,22.83
2019-04-21T10:12:37.432Z,22.79
2019-04-21T10:13:37.169Z,22.68
2019-04-21T10:14:37.099Z,22.67
2019-04-21T10:15:37.669Z,22.72
2019-04-21T10:16:36.960Z,22.71
2019-04-21T10:17:37.503Z,22.72
2019-04-21T10:18:37.914Z,22.77
2019-04-21T10:19:36.750Z,22.79
2019-04-21T10:20:36.680Z,22.77
2019-04-21T10:21:38.007Z,22.87
2019-04-21T10:22:37.241Z,22.81
2019-04-21T10:23:36.467Z,23.04
2019-04-21T10:24:36.397Z,23.11
2019-04-21T10:26:33.837Z,22.94
2019-04-21T10:27:34.873Z,22.97
2019-04-21T10:28:35.052Z,23.00
2019-04-21T10:29:35.826Z,22.94
2019-04-21T10:30:34.751Z,23.07
2019-04-21T10:31:34.553Z,23.14
2019-04-21T10:32:34.463Z,23.15
2019-04-21T10:33:34.485Z,23.14
2019-04-21T10:34:33.263Z,23.04
2019-04-21T10:35:33.192Z,22.90
2019-04-21T10:36:33.261Z,22.92
2019-04-21T10:37:45.470Z,23.05
2019-04-21T10:38:40.070Z,22.97
2019-04-21T10:39:33.675Z,22.99
2019-04-21T10:40:35.286Z,23.07
2019-04-21T10:41:33.079Z,23.09
2019-04-21T10:42:33.204Z,23.08
2019-04-21T10:43:33.476Z,23.12
2019-04-21T10:44:32.551Z,22.94
2019-04-21T10:45:32.837Z,23.00
2019-04-21T10:46:33.003Z,23.08
2019-04-21T10:47:32.343Z,23.12
2019-04-21T10:48:34.565Z,23.07
2019-04-21T10:49:32.770Z,23.11
2019-04-21T10:50:32.123Z,23.18
2019-04-21T10:51:32.882Z,23.15
2019-04-21T10:52:34.030Z,23.29
2019-04-21T10:53:31.928Z,23.20
2019-04-21T10:54:49.191Z,23.48
2019-04-21T10:55:45.039Z,23.53
2019-04-21T10:56:37.979Z,23.52
2019-04-21T10:57:32.654Z,23.82
2019-04-21T10:58:32.175Z,23.98
2019-04-21T10:59:31.483Z,24.00
2019-04-21T11:00:32.373Z,24.11
2019-04-21T11:01:31.560Z,24.02
2019-04-21T11:02:31.268Z,23.80
2019-04-21T11:03:31.200Z,23.92
2019-04-21T11:04:35.187Z,24.05
2019-04-21T11:05:32.394Z,24.11
2019-04-21T11:06:31.058Z,23.95
2019-04-21T11:07:46.373Z,23.92
2019-04-21T11:08:37.558Z,24.02
2019-04-21T11:09:33.971Z,24.04
2019-04-21T11:10:31.889Z,24.20
2019-04-21T11:15:57.115Z,24.57
2019-04-21T11:16:56.606Z,24.42
2019-04-21T11:17:56.162Z,24.20
2019-04-21T11:18:56.097Z,24.04
2019-04-21T11:19:57.024Z,24.23
2019-04-21T11:20:55.970Z,24.38
2019-04-21T11:21:56.840Z,24.45
2019-04-21T11:22:55.818Z,24.34
2019-04-21T11:23:56.494Z,24.41
2019-04-21T11:24:56.696Z,24.66
2019-04-21T11:25:55.840Z,24.83
2019-04-21T11:26:55.909Z,24.75
2019-04-21T11:27:55.474Z,24.82
2019-04-21T11:28:59.015Z,24.80
2019-04-21T11:29:55.756Z,24.62
2019-04-21T11:30:55.271Z,24.52
2019-04-21T11:31:55.202Z,24.44
2019-04-21T11:32:55.310Z,24.83
2019-04-21T11:33:55.393Z,25.10
2019-04-21T11:34:54.999Z,25.09
2019-04-21T11:35:55.203Z,25.82
2019-04-21T11:36:56.048Z,26.67
2019-04-21T11:38:04.569Z,27.20
2019-04-21T11:39:08.576Z,27.36
2019-04-21T11:40:00.100Z,27.92
2019-04-21T11:40:55.847Z,27.38
2019-04-21T11:41:54.530Z,27.80
2019-04-21T11:42:55.605Z,26.97
2019-04-21T11:44:57.535Z,28.10
2019-04-21T11:45:58.056Z,27.41
2019-04-21T11:46:56.780Z,27.69
2019-04-21T11:47:56.715Z,27.76
2019-04-21T11:48:57.923Z,27.77
2019-04-21T11:49:57.075Z,28.06
2019-04-21T11:50:57.321Z,28.71
2019-04-21T11:51:56.646Z,28.87
2019-04-21T11:52:56.870Z,28.87
2019-04-21T11:53:56.913Z,29.26
2019-04-21T11:54:56.278Z,29.65
2019-04-21T11:56:52.780Z,29.28
2019-04-21T11:57:53.106Z,28.80
2019-04-21T11:58:49.881Z,29.43
2019-04-21T11:59:51.430Z,29.56
2019-04-21T12:01:46.000Z,29.53
2019-04-21T12:02:45.929Z,29.28
2019-04-21T12:03:45.868Z,29.60
2019-04-21T12:04:45.808Z,28.28
2019-04-21T12:05:45.749Z,28.34
2019-04-21T12:06:47.620Z,28.43
2019-04-21T12:07:45.629Z,28.28
2019-04-21T12:08:49.122Z,28.83
2019-04-21T12:09:45.768Z,29.25
2019-04-21T12:10:45.454Z,29.65
2019-04-21T12:11:45.418Z,29.19
2019-04-21T12:12:45.479Z,29.74
2019-04-21T12:13:45.874Z,29.68
2019-04-21T12:14:45.930Z,29.36
2019-04-21T12:15:45.173Z,29.18
2019-04-21T12:16:45.102Z,29.06
2019-04-21T12:17:45.943Z,28.36
2019-04-21T12:18:45.161Z,28.66
2019-04-21T12:19:46.164Z,29.84
2019-04-21T12:20:45.141Z,30.67
2019-04-21T12:21:53.085Z,30.43
2019-04-21T12:22:45.320Z,29.58
2019-04-21T12:23:44.903Z,29.99
2019-04-21T12:24:44.997Z,30.08
2019-04-21T12:25:45.297Z,30.37
2019-04-21T12:26:44.801Z,30.74
2019-04-21T12:27:45.715Z,29.73
2019-04-21T12:28:45.871Z,29.18
2019-04-21T12:29:44.351Z,28.69
2019-04-21T12:30:45.277Z,28.65
2019-04-21T12:31:45.419Z,28.90
2019-04-21T12:32:44.358Z,29.46
2019-04-21T12:33:44.153Z,29.26
2019-04-21T12:34:44.113Z,29.77
2019-04-21T12:35:44.005Z,30.10
2019-04-21T12:36:43.950Z,30.74
2019-04-21T12:37:44.781Z,31.01
2019-04-21T12:38:50.882Z,30.99
2019-04-21T12:39:45.037Z,30.53
2019-04-21T12:40:44.351Z,30.70
2019-04-21T12:41:44.628Z,30.29
2019-04-21T12:42:44.145Z,30.86
2019-04-21T12:43:44.530Z,30.74
2019-04-21T12:44:43.567Z,30.40
2019-04-21T12:45:44.126Z,30.96
2019-04-21T12:46:43.636Z,31.30
2019-04-21T12:47:44.036Z,30.72
2019-04-21T12:48:44.248Z,31.05
2019-04-21T12:49:43.684Z,31.27
2019-04-21T12:50:43.749Z,30.24
2019-04-21T12:51:44.070Z,30.48
2019-04-21T12:52:43.042Z,30.78
2019-04-21T12:53:43.486Z,30.27
2019-04-21T12:54:43.951Z,30.03
2019-04-21T12:55:46.032Z,30.39
2019-04-21T12:56:43.358Z,30.64
2019-04-21T12:57:43.533Z,30.99
2019-04-21T12:58:43.545Z,30.37
2019-04-21T12:59:42.749Z,30.93
2019-04-21T13:00:42.922Z,31.38
2019-04-21T13:01:43.103Z,31.44
2019-04-21T13:02:43.537Z,30.46
2019-04-21T13:03:43.709Z,30.27
2019-04-21T13:04:42.371Z,30.55
2019-04-21T13:05:43.416Z,30.67
2019-04-21T13:06:43.471Z,30.86
2019-04-21T13:07:43.623Z,31.11
2019-04-21T13:08:51.820Z,31.01
2019-04-21T13:09:42.159Z,31.63
2019-04-21T13:10:42.341Z,31.84
2019-04-21T13:11:43.423Z,32.03
2019-04-21T13:12:41.925Z,31.76
2019-04-21T13:13:42.091Z,30.85
2019-04-21T13:14:42.175Z,30.59
2019-04-21T13:15:43.236Z,30.70
2019-04-21T13:16:41.702Z,30.87
2019-04-21T13:17:44.457Z,30.85
2019-04-21T13:18:41.813Z,30.92
2019-04-21T13:19:41.535Z,31.08
2019-04-21T13:20:42.294Z,31.04
2019-04-21T13:21:42.336Z,31.34
2019-04-21T13:22:41.950Z,30.79
2019-04-21T13:23:41.313Z,30.62
2019-04-21T13:24:42.111Z,30.97
2019-04-21T13:25:41.662Z,31.16
2019-04-21T13:26:48.386Z,31.16
2019-04-21T13:27:41.093Z,31.04
2019-04-21T13:28:41.036Z,30.19
2019-04-21T13:29:41.955Z,30.15
2019-04-21T13:30:42.198Z,30.30
2019-04-21T13:31:40.922Z,30.92
2019-04-21T13:32:40.851Z,30.15
2019-04-21T13:33:41.956Z,30.15
2019-04-21T13:34:42.008Z,30.18
2019-04-21T13:35:41.305Z,30.30
2019-04-21T13:36:41.414Z,30.17
2019-04-21T13:37:41.499Z,30.44
2019-04-21T13:38:49.190Z,30.56
2019-04-21T13:40:04.843Z,31.04
2019-04-21T13:40:59.929Z,31.07
2019-04-21T13:41:49.393Z,31.48
2019-04-21T13:42:46.055Z,31.86
2019-04-21T13:43:41.300Z,31.64
2019-04-21T13:44:41.329Z,31.66
2019-04-21T13:45:41.557Z,31.79
2019-04-21T13:46:40.663Z,31.63
2019-04-21T13:47:40.776Z,30.62
2019-04-21T13:48:40.365Z,29.80
2019-04-21T13:49:41.386Z,30.12
2019-04-21T13:50:39.803Z,29.87
2019-04-21T13:51:39.746Z,29.46
2019-04-21T13:52:40.759Z,29.99
2019-04-21T13:53:39.962Z,30.33
2019-04-21T13:54:39.855Z,30.94
2019-04-21T13:55:40.755Z,31.16
2019-04-21T13:56:40.604Z,31.73
2019-04-21T13:57:40.804Z,31.80
2019-04-21T13:58:40.154Z,31.79
2019-04-21T13:59:40.335Z,31.79
2019-04-21T14:00:39.996Z,31.29
2019-04-21T14:01:39.670Z,30.74
2019-04-21T14:02:40.661Z,30.39
2019-04-21T14:03:39.680Z,29.99
2019-04-21T14:04:39.014Z,30.48
2019-04-21T14:05:40.187Z,29.78
2019-04-21T14:06:40.471Z,30.17
2019-04-21T14:07:38.848Z,30.30
2019-04-21T14:08:41.647Z,30.81
2019-04-21T14:09:49.042Z,31.26
2019-04-21T14:10:39.801Z,31.53
2019-04-21T14:11:38.621Z,31.20
2019-04-21T14:12:38.565Z,31.39
2019-04-21T14:13:38.622Z,31.45
2019-04-21T14:14:38.672Z,31.60
2019-04-21T14:15:38.397Z,31.58
2019-04-21T14:16:38.342Z,31.76
2019-04-21T14:17:39.198Z,31.52
2019-04-21T14:18:38.563Z,31.20
2019-04-21T14:19:39.335Z,30.67
2019-04-21T14:20:39.458Z,30.74
2019-04-21T14:21:39.121Z,30.85
2019-04-21T14:22:38.155Z,30.90
2019-04-21T14:23:43.938Z,30.92
2019-04-21T14:24:38.712Z,31.20
2019-04-21T14:25:37.889Z,31.51